Etusivu
METAR-TAF:

METAR-TAF

Lentoasemat :

Henri Coandăn lentoasema

Bukarest, Romania

Leveyspiiri: 44-33N, Pituuspiiri: 026-06E, korkeus merenpinnasta: 95 m

Tämänhetkinen sää

Tämä raportti tehtiin 29 minuuttia sitten, kello 22.00 UTC
Tuuli 6 kn pohjoisesta
Lämpötila 8°C
Kosteus 61%
Ilmanpaine 1007 hPa
Näkyvyys 10 km tai enemmän
ei pilviä alle 1500 m:ssä eikä cumulonimbus-pilviä

METAR: LROP 292200Z 01006KT CAVOK 08/01 Q1007 NOSIG

Aika: 01:29 (22:29 UTC)

Sääennuste

Tämä raportti tehtiin 5 tuntia ja 29 minuuttia sitten, kello 17.00 UTC
Ennuste voimassa 29. päivästä klo 18 UTC - 30. päivään klo 18 UTC
Tuuli 10 kn lännestä/lounaasta
Näkyvyys 10 km tai enemmän
ei pilviä alle 1500 m:ssä eikä cumulonimbus-pilviä
Tulossa
29. päivästä klo 20 UTC - 29. päivään klo 22 UTC
Tuuli 4 kn eri suunnista

TAF: LROP 291700Z 2918/3018 25010KT CAVOK BECMG 2920/2922 VRB04KT

Säähavainnot ja -ennusteet yli 4000 lentoasemalta (METAR- ja TAF-raportit).

Käytössä olevat sääasemat on merkitty karttaan keltaisilla ja punaisilla pisteillä.

Aseta hiiri pisteen päälle nähdäksesi sääaseman nimen.

Klikkaa sitten nähdäksesi säähavainnot ja -ennusteet.

Kartan vaihtaminen: klikkaa mustalla rastilla varustettuja vihreitä pisteitä, niin voit zoomata sisään; viivalla varustettua vihreää pistettä, niin voit zoomata ulos tai vihreitä nuolia, niin pääset viereisille kartoille.


METAR-TAF: